Main page
METAR-TAF:

METAR-TAF

Airports :

Inverness Airport

Inverness, Scotland

latitude: 57-32N, longitude: 004-03W, elevation: 9 m

Current weather observation

The report was made 39 minutes ago, at 05:50 UTC
Wind 10 kt from the Southwest
Temperature 10°C
Humidity 82%
Pressure 1011 hPa
Visibility 10 km or more
Few clouds at a height of 2500 ft
Broken clouds at a height of 4000 ft

METAR: EGPE 170550Z 23010KT 9999 FEW025 BKN040 10/07 Q1011

Time: 07:29 (06:29 UTC)

Forecast

The report was made 1 hour and 33 minutes ago, at 04:56 UTC
Forecast valid from 17 at 06 UTC to 17 at 15 UTC
Wind 8 kt from the Southwest
Visibility 10 km or more
Scattered clouds at a height of 3000 ft

TAF: EGPE 170456Z 1706/1715 23008KT 9999 SCT030

Weather observations and forecasts of more than 4000 airports (METAR and TAF reports).

The available stations are represented by yellow and red dots on the map.

Hover mouse over dot to see the name of the station.

Then click to see weather observations and forecasts.

To change the map : click on the green buttons with a black cross to zoom in, on the green button with a dash to zoom out, or on the green arrows for adjacent maps.


METAR-TAF: